Downloads

-JavaCPC -demo -emu -j-cpc_ani -tools 0-9 A B C D E F G H I J K L M N O P Q R S T U V W X Y Z ZZZ_UNK roms
FILEDATESIZEDLs
KTris by Richard Wilson (PD).zip 2017-04-21 16:14 2 Kb71
Kaiser (G) (19xx).zip 2017-04-21 16:13 91 Kb78
Kane & Nebulus & Renaud - Marche a l'Ombre.zip 2017-04-21 16:13 95 Kb40
Kane (UK) (1986).zip 2017-04-21 16:13 28 Kb61
Kane (UK) (1986) [a1].zip 2017-04-21 16:13 80 Kb72
Kane (UK) (1986) [a2].zip 2017-04-21 16:13 38 Kb61
Kane (UK) (1986) [t1].zip 2017-04-21 16:13 38 Kb69
Karateka (F) (1986).zip 2017-04-21 16:13 50 Kb69
Karateka (F) (1986) [f1].zip 2017-04-21 16:13 50 Kb67
Karateka (F) (1986) [t1].zip 2017-04-21 16:13 50 Kb66
Karateka (F) (1990).zip 2017-04-21 16:13 49 Kb64
Karateka (F) (1990) [t1].zip 2017-04-21 16:13 49 Kb66
Karateka (F).dsk 2017-04-21 16:13 192 Kb74
Karl's Treasure Hunt (UK) (1984).zip 2017-04-21 16:13 11 Kb65
Karl's Treasure Hunt (UK) (1984) [a1].zip 2017-04-21 16:13 84 Kb64
Karl's Treasure Hunt (UK) (1984) [a2].zip 2017-04-21 16:13 11 Kb64
Karnov (E) - Disk 1A.dsk 2017-04-21 16:13 214 Kb66
Karnov (E) - Disk 1B.dsk 2017-04-21 16:13 214 Kb65
Karnov (UK) (1988) (Disk 1 of 2).zip 2017-04-21 16:13 73 Kb62
Karnov (UK) (1988) (Disk 1 of 2) [a1].zip 2017-04-21 16:13 56 Kb55
Karnov (UK) (1988) (Disk 1 of 2) [t1].zip 2017-04-21 16:13 159 Kb64
Karnov (UK) (1988) (Disk 1 of 2) [t2].zip 2017-04-21 16:13 73 Kb58
Karnov (UK) (1988) (Disk 2 of 2).zip 2017-04-21 16:13 62 Kb63
Karnov (UK) (1988) (Disk 2 of 2) [a1].zip 2017-04-21 16:13 105 Kb67
Karnov (UK) (1988) (Disk 2 of 2) [t2].zip 2017-04-21 16:13 62 Kb65
Kat Trap (E).dsk 2017-04-21 16:13 91 Kb68
Kat Trap (UK) (1987).zip 2017-04-21 16:13 34 Kb68
Keep Yourself Alive (F) (1987).zip 2017-04-21 16:13 19 Kb69
Kenny Dalglish Soccer Manager (E).cdt 2017-04-21 16:13 57 Kb82
Kenny Dalglish Soccer Manager (UK) (1989).zip 2017-04-21 16:13 25 Kb65
Kenny Dalglish Soccer Match (UK) (1990).zip 2017-04-21 16:13 29 Kb63
Kentilla (UK) (1985).zip 2017-04-21 16:13 23 Kb70
Kentilla (UK) (1985) [a1].zip 2017-04-21 16:13 30 Kb68
Kentucky Racing (E).cdt 2017-04-21 16:13 45 Kb74
Kentucky Racing (UK) (1990).zip 2017-04-21 16:13 24 Kb62
Kentucky Racing (UK) (1990) [f1].zip 2017-04-21 16:13 24 Kb68
Kessia (F) (19xx).zip 2017-04-21 16:13 72 Kb61
Kettle (E).dsk 2017-04-21 16:13 193 Kb66
Kettle (UK) (1986).zip 2017-04-21 16:13 21 Kb70
Kevin Thacker's CPC Guide (UK) (19xx) (PD) (Disk 1 of 2).zip 2017-04-21 16:13 47 Kb59
Kevin Thacker's CPC Guide (UK) (19xx) (PD) (Disk 2 of 2).zip 2017-04-21 16:13 41 Kb63
Key Factor, The (UK) (1985).zip 2017-04-21 16:13 13 Kb72
Kick Off (UK,F,G,S,I) (1990).zip 2017-04-21 16:13 27 Kb65
Kick Off (UK,F,G,S,I) (1990) [a1].zip 2017-04-21 16:13 131 Kb63
Kick Off (UK,F,G,S,I) (1990) [a2].zip 2017-04-21 16:13 31 Kb58
Kick Off 2 (E) - Disk 1A.dsk 2017-04-21 16:13 178 Kb71
Kick Off 2 (E) - Disk 1B.dsk 2017-04-21 16:13 178 Kb70
Kick Off 2 (F) (1990).zip 2017-04-21 16:13 68 Kb65
Kick Off 2 (F) (1990) [a1].zip 2017-04-21 16:13 68 Kb71
Kikstart II (UK) (1988).zip 2017-04-21 16:13 24 Kb70
Kikstart II (UK) (1988) [a1].zip 2017-04-21 16:13 23 Kb71
Killapede (UK) (1986).zip 2017-04-21 16:13 26 Kb64
Killapede (UK) (1986) [a1].zip 2017-04-21 16:13 26 Kb69
Killapede (UK) (1986) [a2].zip 2017-04-21 16:13 32 Kb69
Killapede (UK) (1986) [a3].zip 2017-04-21 16:13 30 Kb66
Killed Until Dead (UK) (1987) (Disk 1 of 2).zip 2017-04-21 16:13 50 Kb63
Killed Until Dead (UK) (1987) (Disk 2 of 2).zip 2017-04-21 16:13 62 Kb60
Killer Ball (UK) (1991).zip 2017-04-21 16:14 103 Kb63
Killer Ball (UK) (1991) [a1].zip 2017-04-21 16:13 103 Kb67
Killer Ball (UK) (1991) [a2].zip 2017-04-21 16:13 76 Kb68
Killer Ball (UK) (1991) [a3].zip 2017-04-21 16:13 96 Kb60
Killer Cobra (E).cdt 2017-04-21 16:14 49 Kb67
Killer Cobra (UK) (1987).zip 2017-04-21 16:14 27 Kb63
Killer Cobra (UK) (1987) [a1].zip 2017-04-21 16:14 27 Kb68
Killer Cobra (UK) (1987) [a2].zip 2017-04-21 16:14 31 Kb65
Killer Gorilla & Knight Lore & Laserwarp & Molecule Man & Zaxx (F).zip 2017-04-21 16:14 82 Kb41
Killer Gorilla (UK) (1984).zip 2017-04-21 16:14 19 Kb68
Killer Gorilla (UK) (1984) [a1].zip 2017-04-21 16:14 19 Kb69
Killer Gorilla (UK) (1984) [a2].zip 2017-04-21 16:14 15 Kb68
Killer Gorilla (UK) (1984) [a3].zip 2017-04-21 16:14 18 Kb64
Killer Gorilla (UK) (1984) [b1].zip 2017-04-21 16:14 19 Kb62
Killer Gorilla (UK) (1984) [b2].zip 2017-04-21 16:14 19 Kb65
Killer Ring (UK) (1987).zip 2017-04-21 16:14 16 Kb69
Killer Ring (UK) (1987) [a1].zip 2017-04-21 16:14 16 Kb68
Kiloroid (UK) (19xx).zip 2017-04-21 16:14 2 Kb66
Kim (F) (1986).zip 2017-04-21 16:14 9 Kb65
Kinetic (UK) (1987).zip 2017-04-21 16:14 35 Kb66
Kinetic (UK) (1987) [a1].zip 2017-04-21 16:14 36 Kb65
Kinetic (UK) (1987) [a2].zip 2017-04-21 16:14 35 Kb74
Kinetik (E).dsk 2017-04-21 16:14 195 Kb75
Kingdom of Hamil (UK) (1987).zip 2017-04-21 16:14 57 Kb67
Kingdoms (UK) (1985).zip 2017-04-21 16:14 5 Kb68
Kit de Telechargement - Telecharge Amstrad CPC (F).dsk 2017-04-21 16:14 217 Kb73
Kit de Telechargement pour Amstrad CPC (F).dsk 2017-04-21 16:14 191 Kb83
Klax & Meynaumede (F) & Nervous Break Down (F) & Skweek.zip 2017-04-21 16:14 97 Kb42
Klax (E).dsk 2017-04-21 16:14 172 Kb66
Klax (UK) (1990) (CPM).zip 2017-04-21 16:14 44 Kb64
Klax (UK) (1990) (CPM) [a1].zip 2017-04-21 16:14 44 Kb72
Klax (UK) (1990) (CPM Version).zip 2017-04-21 16:14 43 Kb63
Klax (UK) (1990) (CPM Version) [a1].zip 2017-04-21 16:14 43 Kb65
Klax (UK) (1990) (Cart).zip 2017-04-21 16:14 41 Kb68
Klax (UK) (1990).zip 2017-04-21 16:14 42 Kb62
Klax (UK) (1990) [a1].zip 2017-04-21 16:14 42 Kb72
Klax (UK) (1990) [h1].zip 2017-04-21 16:14 52 Kb67
Klax (UK) (1990) [h2].zip 2017-04-21 16:14 54 Kb70
Knaves and thou Prisoners (UK) (19xx).zip 2017-04-21 16:14 8 Kb63
Knight Force (F) (1989) (Disk 1 of 2).zip 2017-04-21 16:14 54 Kb65
Knight Force (F) (1989) (Disk 1 of 2) [t1].zip 2017-04-21 16:14 55 Kb62
Knight Force (F) (1989) (Disk 1 of 2) [t2] & Power Drift.zip 2017-04-21 16:14 108 Kb37
Knight Force (F) (1989) (Disk 1 of 2) [t2].zip 2017-04-21 16:14 75 Kb61
Knight Force (F) (1989) (Disk 2 of 2).zip 2017-04-21 16:14 76 Kb63
Knight Force (F) - Disk 1A.dsk 2017-04-21 16:14 456 Kb68
Knight Force (F) - Disk 1B.dsk 2017-04-21 16:14 627 Kb71
Knight Games (E) - Side A.cdt 2017-04-21 16:14 166 Kb76
Knight Games (E) - Side B.cdt 2017-04-21 16:14 142 Kb63
Knight Games (UK) (1986) (Disk 1 of 2).zip 2017-04-21 16:14 88 Kb67
Knight Games (UK) (1986) (Disk 1 of 2) [a1].zip 2017-04-21 16:14 83 Kb58
Knight Games (UK) (1986) (Disk 1 of 2) [a2].zip 2017-04-21 16:14 83 Kb64
Knight Games (UK) (1986) (Disk 1 of 2) [a3].zip 2017-04-21 16:14 103 Kb58
Knight Games (UK) (1986) (Disk 2 of 2).zip 2017-04-21 16:14 94 Kb63
Knight Games (UK) (1986) (Disk 2 of 2) [a1].zip 2017-04-21 16:14 76 Kb60
Knight Games (UK) (1986) (Disk 2 of 2) [a2].zip 2017-04-21 16:14 79 Kb59
Knight Games (UK) (1986) (Disk 2 of 2) [a3].zip 2017-04-21 16:14 109 Kb63
Knight Games (UK) (1986) [f1][t1].zip 2017-04-21 16:14 179 Kb62
Knight Lore (E).cdt 2017-04-21 16:14 42 Kb64
Knight Lore (UK) (1984).zip 2017-04-21 16:14 25 Kb68
Knight Lore (UK) (1984) [a1].zip 2017-04-21 16:14 25 Kb66
Knight Lore (UK) (1984) [a2].zip 2017-04-21 16:14 25 Kb70
Knight Moves (F) (19xx) (Disk 1 of 2).zip 2017-04-21 16:14 60 Kb66
Knight Moves (F) (19xx) (Disk 2 of 2).zip 2017-04-21 16:14 83 Kb62
Knight Orc (E) - Disk 1A.dsk 2017-04-21 16:14 194 Kb68
Knight Orc (E) - Disk 1B.dsk 2017-04-21 16:14 199 Kb71
Knight Orc (UK) (1987) (Disk 1 of 2).zip 2017-04-21 16:14 119 Kb66
Knight Orc (UK) (1987) (Disk 2 of 2).zip 2017-04-21 16:14 110 Kb65
Knight Rider (E).cdt 2017-04-21 16:14 45 Kb69
Knight Rider (UK) (1986).zip 2017-04-21 16:14 20 Kb60
Knight Rider (UK) (1986) [h1].zip 2017-04-21 16:14 32 Kb69
Knight Rider (UK) (1986) [h2].zip 2017-04-21 16:14 21 Kb65
Knight Tyme (E).cdt 2017-04-21 16:14 57 Kb70
Knight Tyme (UK) (1986).zip 2017-04-21 16:14 31 Kb72
Knight Tyme (UK) (1986) [a1].zip 2017-04-21 16:14 31 Kb68
Knight Tyme (UK) (1986) [t1].zip 2017-04-21 16:14 31 Kb59
Knightmare (E).dsk 2017-04-21 16:14 213 Kb72
Knightmare (UK) (1987).zip 2017-04-21 16:14 29 Kb67
Knightmare (UK) (1987) [a1].zip 2017-04-21 16:14 30 Kb61
Knightmare (UK) (1987) [a2].zip 2017-04-21 16:14 30 Kb69
Knightmare (UK) (1987) [t1].zip 2017-04-21 16:14 33 Kb67
Know (G).dsk 2017-04-21 16:14 192 Kb78
Kobayashi Naru (UK) (19xx).zip 2017-04-21 16:14 31 Kb68
Kobayashi Naru (UK) (1987).zip 2017-04-21 16:14 31 Kb66
Kobayashi Naru (UK) (1987) [a1].zip 2017-04-21 16:14 31 Kb68
Kobayashi Naru (UK) (1987) [a2].zip 2017-04-21 16:14 48 Kb69
Kokotoni Wilf (UK) (19xx).zip 2017-04-21 16:14 137 Kb71
Kokotoni Wilf (UK) (19xx) [a1].zip 2017-04-21 16:14 35 Kb65
Kokotoni Wilf (UK) (19xx) [f1][t1].zip 2017-04-21 16:14 37 Kb62
Konami's Golf (UK) (1986).zip 2017-04-21 16:14 24 Kb61
Konami's Golf (UK) (1986) [a1].zip 2017-04-21 16:14 24 Kb64
Konami's Golf (UK) (1986) [a2].zip 2017-04-21 16:14 26 Kb64
Konami Coin-op Hits (UK) (19xx) (Disk 1 of 2).zip 2017-04-21 16:14 50 Kb61
Konami Coin-op Hits (UK) (19xx) (Disk 1 of 2) [a1].zip 2017-04-21 16:14 50 Kb59
Konami Coin-op Hits (UK) (19xx) (Disk 2 of 2).zip 2017-04-21 16:14 65 Kb61
Konami Coin-op Hits (UK) (19xx) (Disk 2 of 2) [a1].zip 2017-04-21 16:14 65 Kb63
Konami Coin-op Hits (UK) (19xx) (Disk 2 of 2) [a2].zip 2017-04-21 16:14 65 Kb62
Kong Strikes Back (UK) (1985).zip 2017-04-21 16:14 21 Kb71
Kong Strikes Back (UK) (1985) [a1].zip 2017-04-21 16:14 21 Kb66
Kong Strikes Back (UK) (1985) [a2].zip 2017-04-21 16:14 23 Kb63
Koronis Rift (E).dsk 2017-04-21 16:14 186 Kb72
Koronis Rift (UK) (1987).zip 2017-04-21 16:14 57 Kb66
Krakout (E).cdt 2017-04-21 16:14 64 Kb75
Krakout (E).dsk 2017-04-21 16:14 171 Kb71
Krakout (UK) (1987).zip 2017-04-21 16:14 31 Kb69
Krakout (UK) (1987) [h1].zip 2017-04-21 16:14 34 Kb62
Kristal (F).dsk 2017-04-21 16:14 191 Kb70
Kristal (UK) (1985).zip 2017-04-21 16:14 16 Kb68
Kristax (UK) (1989).zip 2017-04-21 16:14 9 Kb65
Krypton Factor (UK) (1987) (Disk 1 of 2).zip 2017-04-21 16:14 52 Kb59
Krypton Factor (UK) (1987) (Disk 1 of 2) [a1].zip 2017-04-21 16:14 47 Kb70
Krypton Factor (UK) (1987) (Disk 2 of 2).zip 2017-04-21 16:14 5 Kb63
Krypton Factor (UK) (1987) (Disk 2 of 2) [a1].zip 2017-04-21 16:14 21 Kb62
Kung-Fu (UK) (1986).zip 2017-04-21 16:14 19 Kb66
Kung-Fu Master (E).dsk 2017-04-21 16:14 191 Kb62
Kung-Fu Master (UK) (1986).zip 2017-04-21 16:14 28 Kb66
Kung-Fu Master (UK) (1986) [h1].zip 2017-04-21 16:14 22 Kb66
Kwah (UK) (1987).zip 2017-04-21 16:14 36 Kb59
Kwik Snax (E).cdt 2017-04-21 16:14 65 Kb80
Kwik Snax (UK) (1990).zip 2017-04-21 16:14 22 Kb62
Kwik Snax (UK) (1990) [f1].zip 2017-04-21 16:14 33 Kb69
Kwik Snax (UK) (1990) [h1].zip 2017-04-21 16:14 41 Kb69
Kwik Snax (UK) (1990) [t1].zip 2017-04-21 16:14 33 Kb64
kobayashi Naru (E).cdt 2017-04-21 16:14 74 Kb69
180 Files
-JavaCPC -demo -emu -j-cpc_ani -tools 0-9 A B C D E F G H I J K L M N O P Q R S T U V W X Y Z ZZZ_UNK roms